sensor_id;sensor_type;location;lat;lon;timestamp;P1;durP1;ratioP1;P2;durP2;ratioP2
34832;SDS011;55941;50.800;4.342;2022-09-17T00:02:09;14.77;;;1.92;;
34832;SDS011;55941;50.800;4.342;2022-09-17T00:04:35;11.20;;;1.45;;
34832;SDS011;55941;50.800;4.342;2022-09-17T00:07:01;10.45;;;1.67;;
34832;SDS011;55941;50.800;4.342;2022-09-17T00:09:28;16.17;;;2.67;;
34832;SDS011;55941;50.800;4.342;2022-09-17T00:11:55;8.93;;;1.88;;
34832;SDS011;55941;50.800;4.342;2022-09-17T00:14:20;13.05;;;1.85;;
34832;SDS011;55941;50.800;4.342;2022-09-17T00:16:47;13.77;;;1.92;;
34832;SDS011;55941;50.800;4.342;2022-09-17T00:19:14;12.80;;;1.80;;
34832;SDS011;55941;50.800;4.342;2022-09-17T00:21:42;16.10;;;1.60;;
34832;SDS011;55941;50.800;4.342;2022-09-17T00:24:09;8.80;;;1.85;;
34832;SDS011;55941;50.800;4.342;2022-09-17T00:26:38;13.80;;;2.17;;
34832;SDS011;55941;50.800;4.342;2022-09-17T00:29:04;13.35;;;1.95;;
34832;SDS011;55941;50.800;4.342;2022-09-17T00:31:30;11.95;;;1.67;;
34832;SDS011;55941;50.800;4.342;2022-09-17T00:33:57;13.98;;;2.28;;
34832;SDS011;55941;50.800;4.342;2022-09-17T00:36:24;13.02;;;2.72;;
34832;SDS011;55941;50.800;4.342;2022-09-17T00:38:52;16.80;;;2.00;;
34832;SDS011;55941;50.800;4.342;2022-09-17T00:41:20;8.73;;;2.00;;
34832;SDS011;55941;50.800;4.342;2022-09-17T00:43:50;9.70;;;1.75;;
34832;SDS011;55941;50.800;4.342;2022-09-17T00:49:11;14.20;;;2.03;;
34832;SDS011;55941;50.800;4.342;2022-09-17T00:52:01;12.50;;;1.73;;
34832;SDS011;55941;50.800;4.342;2022-09-17T00:54:30;11.80;;;1.48;;
34832;SDS011;55941;50.800;4.342;2022-09-17T00:56:57;15.80;;;2.00;;
34832;SDS011;55941;50.800;4.342;2022-09-17T00:59:23;14.88;;;1.80;;
34832;SDS011;55941;50.800;4.342;2022-09-17T01:01:50;11.20;;;1.85;;
34832;SDS011;55941;50.800;4.342;2022-09-17T01:04:17;12.82;;;1.30;;
34832;SDS011;55941;50.800;4.342;2022-09-17T01:06:56;14.15;;;1.98;;
34832;SDS011;55941;50.800;4.342;2022-09-17T01:17:35;10.95;;;1.45;;
34832;SDS011;55941;50.800;4.342;2022-09-17T01:28:42;12.65;;;1.98;;
34832;SDS011;55941;50.800;4.342;2022-09-17T01:31:16;12.35;;;1.50;;
34832;SDS011;55941;50.800;4.342;2022-09-17T01:39:14;14.93;;;1.77;;
34832;SDS011;55941;50.800;4.342;2022-09-17T01:42:13;12.82;;;1.88;;
34832;SDS011;55941;50.800;4.342;2022-09-17T01:47:25;17.77;;;2.38;;
34832;SDS011;55941;50.800;4.342;2022-09-17T01:49:59;11.55;;;1.73;;
34832;SDS011;55941;50.800;4.342;2022-09-17T01:52:29;17.48;;;2.33;;
34832;SDS011;55941;50.800;4.342;2022-09-17T01:55:00;16.33;;;1.80;;
34832;SDS011;55941;50.800;4.342;2022-09-17T01:57:35;14.48;;;2.92;;
34832;SDS011;55941;50.800;4.342;2022-09-17T02:00:10;18.15;;;1.98;;
34832;SDS011;55941;50.800;4.342;2022-09-17T02:02:46;14.10;;;2.17;;
34832;SDS011;55941;50.800;4.342;2022-09-17T02:05:29;11.38;;;1.67;;
34832;SDS011;55941;50.800;4.342;2022-09-17T02:08:13;11.95;;;2.10;;
34832;SDS011;55941;50.800;4.342;2022-09-17T02:11:28;20.50;;;2.40;;
34832;SDS011;55941;50.800;4.342;2022-09-17T02:13:46;9.77;;;1.73;;
34832;SDS011;55941;50.800;4.342;2022-09-17T02:16:27;22.95;;;2.40;;
34832;SDS011;55941;50.800;4.342;2022-09-17T02:24:29;22.08;;;2.80;;
34832;SDS011;55941;50.800;4.342;2022-09-17T02:27:39;15.95;;;2.47;;
34832;SDS011;55941;50.800;4.342;2022-09-17T02:29:55;19.60;;;2.58;;
34832;SDS011;55941;50.800;4.342;2022-09-17T02:32:20;19.38;;;2.33;;
34832;SDS011;55941;50.800;4.342;2022-09-17T02:34:46;18.27;;;2.20;;
34832;SDS011;55941;50.800;4.342;2022-09-17T02:37:12;17.98;;;2.28;;
34832;SDS011;55941;50.800;4.342;2022-09-17T02:39:38;24.08;;;2.45;;
34832;SDS011;55941;50.800;4.342;2022-09-17T02:45:05;13.80;;;1.98;;
34832;SDS011;55941;50.800;4.342;2022-09-17T02:55:58;16.50;;;2.95;;
34832;SDS011;55941;50.800;4.342;2022-09-17T03:02:00;13.48;;;2.30;;
34832;SDS011;55941;50.800;4.342;2022-09-17T03:04:09;19.52;;;2.80;;
34832;SDS011;55941;50.800;4.342;2022-09-17T03:06:38;21.95;;;2.90;;
34832;SDS011;55941;50.800;4.342;2022-09-17T03:09:05;17.05;;;1.95;;
34832;SDS011;55941;50.800;4.342;2022-09-17T03:11:31;19.00;;;2.17;;
34832;SDS011;55941;50.800;4.342;2022-09-17T03:13:57;18.02;;;2.72;;
34832;SDS011;55941;50.800;4.342;2022-09-17T03:16:24;19.75;;;2.15;;
34832;SDS011;55941;50.800;4.342;2022-09-17T03:18:49;18.85;;;2.50;;
34832;SDS011;55941;50.800;4.342;2022-09-17T03:21:15;25.02;;;2.80;;
34832;SDS011;55941;50.800;4.342;2022-09-17T03:23:41;15.20;;;2.38;;
34832;SDS011;55941;50.800;4.342;2022-09-17T03:26:06;19.15;;;2.92;;
34832;SDS011;55941;50.800;4.342;2022-09-17T03:28:32;21.60;;;2.40;;
34832;SDS011;55941;50.800;4.342;2022-09-17T03:30:59;19.25;;;2.15;;
34832;SDS011;55941;50.800;4.342;2022-09-17T03:33:25;20.05;;;2.42;;
34832;SDS011;55941;50.800;4.342;2022-09-17T03:35:51;13.45;;;2.22;;
34832;SDS011;55941;50.800;4.342;2022-09-17T03:38:17;18.30;;;2.38;;
34832;SDS011;55941;50.800;4.342;2022-09-17T03:40:42;20.40;;;2.75;;
34832;SDS011;55941;50.800;4.342;2022-09-17T03:43:08;16.45;;;2.42;;
34832;SDS011;55941;50.800;4.342;2022-09-17T03:45:34;19.75;;;2.15;;
34832;SDS011;55941;50.800;4.342;2022-09-17T03:48:00;17.52;;;2.35;;
34832;SDS011;55941;50.800;4.342;2022-09-17T03:50:26;27.83;;;3.05;;
34832;SDS011;55941;50.800;4.342;2022-09-17T03:52:53;21.08;;;2.33;;
34832;SDS011;55941;50.800;4.342;2022-09-17T03:55:19;17.73;;;2.60;;
34832;SDS011;55941;50.800;4.342;2022-09-17T03:57:44;21.58;;;2.60;;
34832;SDS011;55941;50.800;4.342;2022-09-17T04:00:10;17.60;;;2.45;;
34832;SDS011;55941;50.800;4.342;2022-09-17T04:02:37;13.05;;;2.25;;
34832;SDS011;55941;50.800;4.342;2022-09-17T04:05:03;16.92;;;2.35;;
34832;SDS011;55941;50.800;4.342;2022-09-17T04:07:29;20.50;;;3.00;;
34832;SDS011;55941;50.800;4.342;2022-09-17T04:09:54;20.25;;;2.47;;
34832;SDS011;55941;50.800;4.342;2022-09-17T04:12:20;19.92;;;2.50;;
34832;SDS011;55941;50.800;4.342;2022-09-17T04:14:46;24.13;;;2.88;;
34832;SDS011;55941;50.800;4.342;2022-09-17T04:17:12;27.15;;;3.28;;
34832;SDS011;55941;50.800;4.342;2022-09-17T04:19:42;29.70;;;3.22;;
34832;SDS011;55941;50.800;4.342;2022-09-17T04:22:08;27.95;;;3.15;;
34832;SDS011;55941;50.800;4.342;2022-09-17T04:24:34;20.80;;;2.45;;
34832;SDS011;55941;50.800;4.342;2022-09-17T04:27:00;31.48;;;3.13;;
34832;SDS011;55941;50.800;4.342;2022-09-17T04:29:26;23.98;;;3.28;;
34832;SDS011;55941;50.800;4.342;2022-09-17T04:31:52;27.83;;;3.45;;
34832;SDS011;55941;50.800;4.342;2022-09-17T04:34:18;27.23;;;3.30;;
34832;SDS011;55941;50.800;4.342;2022-09-17T04:36:44;21.27;;;2.47;;
34832;SDS011;55941;50.800;4.342;2022-09-17T04:39:10;24.33;;;2.60;;
34832;SDS011;55941;50.800;4.342;2022-09-17T04:41:36;30.02;;;3.72;;
34832;SDS011;55941;50.800;4.342;2022-09-17T04:44:02;21.52;;;2.75;;
34832;SDS011;55941;50.800;4.342;2022-09-17T04:46:29;29.50;;;3.20;;
34832;SDS011;55941;50.800;4.342;2022-09-17T04:48:54;29.25;;;3.83;;
34832;SDS011;55941;50.800;4.342;2022-09-17T04:51:21;22.30;;;3.00;;
34832;SDS011;55941;50.800;4.342;2022-09-17T04:53:46;23.92;;;3.03;;
34832;SDS011;55941;50.800;4.342;2022-09-17T04:56:12;27.63;;;3.90;;
34832;SDS011;55941;50.800;4.342;2022-09-17T04:58:38;30.90;;;3.55;;
34832;SDS011;55941;50.800;4.342;2022-09-17T05:01:03;22.17;;;2.97;;
34832;SDS011;55941;50.800;4.342;2022-09-17T05:03:29;20.25;;;2.92;;
34832;SDS011;55941;50.800;4.342;2022-09-17T05:05:55;27.70;;;2.97;;
34832;SDS011;55941;50.800;4.342;2022-09-17T05:08:21;24.90;;;2.55;;
34832;SDS011;55941;50.800;4.342;2022-09-17T05:10:48;27.67;;;2.97;;
34832;SDS011;55941;50.800;4.342;2022-09-17T05:13:15;26.67;;;3.05;;
34832;SDS011;55941;50.800;4.342;2022-09-17T05:15:41;27.10;;;4.93;;
34832;SDS011;55941;50.800;4.342;2022-09-17T05:18:07;23.75;;;3.90;;
34832;SDS011;55941;50.800;4.342;2022-09-17T05:20:33;23.50;;;4.05;;
34832;SDS011;55941;50.800;4.342;2022-09-17T05:22:59;27.02;;;3.90;;
34832;SDS011;55941;50.800;4.342;2022-09-17T05:25:25;26.80;;;3.75;;
34832;SDS011;55941;50.800;4.342;2022-09-17T05:27:51;27.35;;;2.67;;
34832;SDS011;55941;50.800;4.342;2022-09-17T05:30:17;24.05;;;2.85;;
34832;SDS011;55941;50.800;4.342;2022-09-17T05:32:44;22.58;;;3.13;;
34832;SDS011;55941;50.800;4.342;2022-09-17T05:35:13;24.92;;;3.70;;
34832;SDS011;55941;50.800;4.342;2022-09-17T05:37:39;18.55;;;3.20;;
34832;SDS011;55941;50.800;4.342;2022-09-17T05:40:05;18.35;;;2.53;;
34832;SDS011;55941;50.800;4.342;2022-09-17T05:42:32;21.85;;;3.38;;
34832;SDS011;55941;50.800;4.342;2022-09-17T05:44:59;22.95;;;2.88;;
34832;SDS011;55941;50.800;4.342;2022-09-17T05:47:27;20.52;;;2.67;;
34832;SDS011;55941;50.800;4.342;2022-09-17T05:49:53;24.38;;;2.80;;
34832;SDS011;55941;50.800;4.342;2022-09-17T05:52:18;23.27;;;3.40;;
34832;SDS011;55941;50.800;4.342;2022-09-17T05:54:44;31.90;;;3.95;;
34832;SDS011;55941;50.800;4.342;2022-09-17T05:57:10;23.27;;;3.33;;
34832;SDS011;55941;50.800;4.342;2022-09-17T05:59:36;26.95;;;3.78;;
34832;SDS011;55941;50.800;4.342;2022-09-17T06:02:02;20.77;;;2.80;;
34832;SDS011;55941;50.800;4.342;2022-09-17T06:04:28;21.40;;;3.22;;
34832;SDS011;55941;50.800;4.342;2022-09-17T06:06:55;18.55;;;2.78;;
34832;SDS011;55941;50.800;4.342;2022-09-17T06:09:21;22.92;;;3.20;;
34832;SDS011;55941;50.800;4.342;2022-09-17T06:11:47;23.95;;;3.47;;
34832;SDS011;55941;50.800;4.342;2022-09-17T06:14:13;20.83;;;2.75;;
34832;SDS011;55941;50.800;4.342;2022-09-17T06:16:40;16.75;;;2.88;;
34832;SDS011;55941;50.800;4.342;2022-09-17T06:19:06;23.02;;;2.50;;
34832;SDS011;55941;50.800;4.342;2022-09-17T06:21:32;27.35;;;3.35;;
34832;SDS011;55941;50.800;4.342;2022-09-17T06:23:57;20.02;;;3.38;;
34832;SDS011;55941;50.800;4.342;2022-09-17T06:26:24;19.60;;;3.13;;
34832;SDS011;55941;50.800;4.342;2022-09-17T06:28:50;20.95;;;2.70;;
34832;SDS011;55941;50.800;4.342;2022-09-17T06:31:16;27.90;;;3.72;;
34832;SDS011;55941;50.800;4.342;2022-09-17T06:33:41;29.55;;;3.00;;
34832;SDS011;55941;50.800;4.342;2022-09-17T06:36:08;22.33;;;3.80;;
34832;SDS011;55941;50.800;4.342;2022-09-17T06:38:36;16.70;;;3.05;;
34832;SDS011;55941;50.800;4.342;2022-09-17T06:41:02;19.05;;;3.25;;
34832;SDS011;55941;50.800;4.342;2022-09-17T06:43:28;23.45;;;3.35;;
34832;SDS011;55941;50.800;4.342;2022-09-17T06:45:55;26.23;;;3.38;;
34832;SDS011;55941;50.800;4.342;2022-09-17T06:48:23;25.55;;;3.13;;
34832;SDS011;55941;50.800;4.342;2022-09-17T06:50:52;21.50;;;2.92;;
34832;SDS011;55941;50.800;4.342;2022-09-17T06:53:23;24.35;;;2.78;;
34832;SDS011;55941;50.800;4.342;2022-09-17T06:55:49;16.70;;;2.50;;
34832;SDS011;55941;50.800;4.342;2022-09-17T06:58:15;22.73;;;2.88;;
34832;SDS011;55941;50.800;4.342;2022-09-17T07:00:41;24.75;;;2.78;;
34832;SDS011;55941;50.800;4.342;2022-09-17T07:03:08;17.50;;;2.55;;
34832;SDS011;55941;50.800;4.342;2022-09-17T07:05:34;22.08;;;2.97;;
34832;SDS011;55941;50.800;4.342;2022-09-17T07:08:00;26.75;;;3.10;;
34832;SDS011;55941;50.800;4.342;2022-09-17T07:10:27;23.50;;;3.42;;
34832;SDS011;55941;50.800;4.342;2022-09-17T07:12:54;19.50;;;3.15;;
34832;SDS011;55941;50.800;4.342;2022-09-17T07:15:20;16.83;;;3.03;;
34832;SDS011;55941;50.800;4.342;2022-09-17T07:17:46;24.63;;;3.38;;
34832;SDS011;55941;50.800;4.342;2022-09-17T07:20:12;26.27;;;3.35;;
34832;SDS011;55941;50.800;4.342;2022-09-17T07:22:38;18.92;;;2.08;;
34832;SDS011;55941;50.800;4.342;2022-09-17T07:25:04;21.35;;;3.15;;
34832;SDS011;55941;50.800;4.342;2022-09-17T07:27:31;20.67;;;2.88;;
34832;SDS011;55941;50.800;4.342;2022-09-17T07:29:57;25.58;;;2.47;;
34832;SDS011;55941;50.800;4.342;2022-09-17T07:32:23;20.25;;;2.72;;
34832;SDS011;55941;50.800;4.342;2022-09-17T07:34:49;14.70;;;1.95;;
34832;SDS011;55941;50.800;4.342;2022-09-17T07:37:15;18.27;;;2.80;;
34832;SDS011;55941;50.800;4.342;2022-09-17T07:39:42;22.95;;;3.22;;
34832;SDS011;55941;50.800;4.342;2022-09-17T07:42:08;19.20;;;2.20;;
34832;SDS011;55941;50.800;4.342;2022-09-17T07:44:35;15.75;;;2.50;;
34832;SDS011;55941;50.800;4.342;2022-09-17T07:47:02;19.90;;;2.50;;
34832;SDS011;55941;50.800;4.342;2022-09-17T07:49:28;14.45;;;1.95;;
34832;SDS011;55941;50.800;4.342;2022-09-17T07:51:54;20.30;;;2.97;;
34832;SDS011;55941;50.800;4.342;2022-09-17T07:54:19;13.05;;;2.35;;
34832;SDS011;55941;50.800;4.342;2022-09-17T07:56:45;14.40;;;2.15;;
34832;SDS011;55941;50.800;4.342;2022-09-17T07:59:11;21.75;;;2.78;;
34832;SDS011;55941;50.800;4.342;2022-09-17T08:01:37;17.85;;;3.22;;
34832;SDS011;55941;50.800;4.342;2022-09-17T08:04:03;15.77;;;2.92;;
34832;SDS011;55941;50.800;4.342;2022-09-17T08:06:30;15.82;;;1.90;;
34832;SDS011;55941;50.800;4.342;2022-09-17T08:08:57;17.23;;;2.30;;
34832;SDS011;55941;50.800;4.342;2022-09-17T08:11:27;15.25;;;2.30;;
34832;SDS011;55941;50.800;4.342;2022-09-17T08:13:54;20.10;;;2.30;;
34832;SDS011;55941;50.800;4.342;2022-09-17T08:16:20;14.32;;;2.25;;
34832;SDS011;55941;50.800;4.342;2022-09-17T08:18:47;12.68;;;2.03;;
34832;SDS011;55941;50.800;4.342;2022-09-17T08:21:18;13.35;;;2.00;;
34832;SDS011;55941;50.800;4.342;2022-09-17T08:23:44;17.25;;;2.92;;
34832;SDS011;55941;50.800;4.342;2022-09-17T08:26:13;19.60;;;2.53;;
34832;SDS011;55941;50.800;4.342;2022-09-17T08:28:44;21.90;;;3.08;;
34832;SDS011;55941;50.800;4.342;2022-09-17T08:31:12;25.00;;;3.15;;
34832;SDS011;55941;50.800;4.342;2022-09-17T08:33:38;15.98;;;2.10;;
34832;SDS011;55941;50.800;4.342;2022-09-17T08:36:05;20.20;;;2.55;;
34832;SDS011;55941;50.800;4.342;2022-09-17T08:38:34;21.00;;;2.88;;
34832;SDS011;55941;50.800;4.342;2022-09-17T08:44:06;11.15;;;2.20;;
34832;SDS011;55941;50.800;4.342;2022-09-17T08:50:01;8.00;;;1.95;;
34832;SDS011;55941;50.800;4.342;2022-09-17T08:52:38;12.88;;;2.03;;
34832;SDS011;55941;50.800;4.342;2022-09-17T09:00:11;6.55;;;1.35;;
34832;SDS011;55941;50.800;4.342;2022-09-17T09:05:42;11.77;;;1.73;;
34832;SDS011;55941;50.800;4.342;2022-09-17T09:08:15;15.38;;;2.17;;
34832;SDS011;55941;50.800;4.342;2022-09-17T09:10:48;13.32;;;2.22;;
34832;SDS011;55941;50.800;4.342;2022-09-17T09:13:43;12.20;;;2.28;;
34832;SDS011;55941;50.800;4.342;2022-09-17T09:16:15;12.75;;;1.75;;
34832;SDS011;55941;50.800;4.342;2022-09-17T09:18:43;10.50;;;1.38;;
34832;SDS011;55941;50.800;4.342;2022-09-17T09:21:28;10.85;;;1.77;;
34832;SDS011;55941;50.800;4.342;2022-09-17T09:26:47;13.57;;;1.80;;
34832;SDS011;55941;50.800;4.342;2022-09-17T09:31:49;10.23;;;1.65;;
34832;SDS011;55941;50.800;4.342;2022-09-17T09:34:29;8.23;;;1.83;;
34832;SDS011;55941;50.800;4.342;2022-09-17T09:37:04;11.35;;;2.03;;
34832;SDS011;55941;50.800;4.342;2022-09-17T09:39:44;9.27;;;1.67;;
34832;SDS011;55941;50.800;4.342;2022-09-17T09:45:11;11.45;;;1.77;;
34832;SDS011;55941;50.800;4.342;2022-09-17T09:50:19;13.35;;;2.25;;
34832;SDS011;55941;50.800;4.342;2022-09-17T09:53:02;8.52;;;1.25;;
34832;SDS011;55941;50.800;4.342;2022-09-17T09:55:53;11.38;;;1.67;;
34832;SDS011;55941;50.800;4.342;2022-09-17T09:58:40;9.52;;;1.83;;
34832;SDS011;55941;50.800;4.342;2022-09-17T10:01:12;7.78;;;1.52;;
34832;SDS011;55941;50.800;4.342;2022-09-17T10:03:41;9.45;;;1.48;;
34832;SDS011;55941;50.800;4.342;2022-09-17T10:06:10;6.60;;;1.30;;
34832;SDS011;55941;50.800;4.342;2022-09-17T10:08:40;2.72;;;0.90;;
34832;SDS011;55941;50.800;4.342;2022-09-17T10:11:27;6.15;;;1.15;;
34832;SDS011;55941;50.800;4.342;2022-09-17T10:14:13;5.43;;;1.45;;
34832;SDS011;55941;50.800;4.342;2022-09-17T10:17:21;11.27;;;1.55;;
34832;SDS011;55941;50.800;4.342;2022-09-17T10:25:28;6.25;;;0.77;;
34832;SDS011;55941;50.800;4.342;2022-09-17T10:28:15;4.05;;;0.80;;
34832;SDS011;55941;50.800;4.342;2022-09-17T10:30:56;8.27;;;1.40;;
34832;SDS011;55941;50.800;4.342;2022-09-17T10:33:24;9.20;;;1.23;;
34832;SDS011;55941;50.800;4.342;2022-09-17T10:35:54;6.82;;;1.23;;
34832;SDS011;55941;50.800;4.342;2022-09-17T10:38:26;8.77;;;1.10;;
34832;SDS011;55941;50.800;4.342;2022-09-17T10:43:52;12.20;;;1.38;;
34832;SDS011;55941;50.800;4.342;2022-09-17T10:46:27;5.53;;;0.90;;
34832;SDS011;55941;50.800;4.342;2022-09-17T10:49:05;9.38;;;1.02;;
34832;SDS011;55941;50.800;4.342;2022-09-17T10:51:43;3.67;;;0.93;;
34832;SDS011;55941;50.800;4.342;2022-09-17T10:54:14;9.93;;;0.95;;
34832;SDS011;55941;50.800;4.342;2022-09-17T10:56:52;9.57;;;0.85;;
34832;SDS011;55941;50.800;4.342;2022-09-17T11:02:23;4.72;;;1.00;;
34832;SDS011;55941;50.800;4.342;2022-09-17T11:08:15;8.50;;;1.17;;
34832;SDS011;55941;50.800;4.342;2022-09-17T11:30:22;4.22;;;1.20;;
34832;SDS011;55941;50.800;4.342;2022-09-17T11:35:56;11.45;;;1.77;;
34832;SDS011;55941;50.800;4.342;2022-09-17T11:38:37;7.97;;;1.95;;
34832;SDS011;55941;50.800;4.342;2022-09-17T11:41:13;7.93;;;1.88;;
34832;SDS011;55941;50.800;4.342;2022-09-17T11:46:37;9.52;;;2.10;;
34832;SDS011;55941;50.800;4.342;2022-09-17T11:52:08;8.75;;;2.13;;
34832;SDS011;55941;50.800;4.342;2022-09-17T11:54:41;8.40;;;2.03;;
34832;SDS011;55941;50.800;4.342;2022-09-17T11:57:16;8.98;;;1.98;;
34832;SDS011;55941;50.800;4.342;2022-09-17T12:05:17;7.85;;;1.80;;
34832;SDS011;55941;50.800;4.342;2022-09-17T12:16:13;8.95;;;1.85;;
34832;SDS011;55941;50.800;4.342;2022-09-17T12:21:30;9.75;;;1.42;;
34832;SDS011;55941;50.800;4.342;2022-09-17T12:24:00;7.03;;;1.48;;
34832;SDS011;55941;50.800;4.342;2022-09-17T12:35:55;10.30;;;2.13;;
34832;SDS011;55941;50.800;4.342;2022-09-17T12:44:40;11.27;;;2.08;;
34832;SDS011;55941;50.800;4.342;2022-09-17T12:56:34;10.77;;;1.73;;
34832;SDS011;55941;50.800;4.342;2022-09-17T12:59:17;11.60;;;2.10;;
34832;SDS011;55941;50.800;4.342;2022-09-17T13:01:58;15.43;;;3.10;;
34832;SDS011;55941;50.800;4.342;2022-09-17T13:10:40;10.27;;;2.40;;
34832;SDS011;55941;50.800;4.342;2022-09-17T13:13:31;14.27;;;2.67;;
34832;SDS011;55941;50.800;4.342;2022-09-17T13:16:28;10.27;;;2.30;;
34832;SDS011;55941;50.800;4.342;2022-09-17T13:21:35;13.57;;;2.38;;
34832;SDS011;55941;50.800;4.342;2022-09-17T13:24:31;9.52;;;1.92;;
34832;SDS011;55941;50.800;4.342;2022-09-17T13:26:58;27.20;;;3.05;;
34832;SDS011;55941;50.800;4.342;2022-09-17T13:37:39;15.32;;;3.97;;
34832;SDS011;55941;50.800;4.342;2022-09-17T13:40:24;12.20;;;2.20;;
34832;SDS011;55941;50.800;4.342;2022-09-17T13:42:55;16.75;;;2.92;;
34832;SDS011;55941;50.800;4.342;2022-09-17T13:45:23;13.15;;;2.47;;
34832;SDS011;55941;50.800;4.342;2022-09-17T13:48:01;10.95;;;1.90;;
34832;SDS011;55941;50.800;4.342;2022-09-17T13:55:44;11.50;;;2.55;;
34832;SDS011;55941;50.800;4.342;2022-09-17T14:21:40;9.02;;;2.28;;
34832;SDS011;55941;50.800;4.342;2022-09-17T14:27:12;10.90;;;1.80;;
34832;SDS011;55941;50.800;4.342;2022-09-17T14:30:10;9.18;;;2.00;;
34832;SDS011;55941;50.800;4.342;2022-09-17T14:35:36;8.15;;;1.48;;
34832;SDS011;55941;50.800;4.342;2022-09-17T14:40:46;16.58;;;2.30;;
34832;SDS011;55941;50.800;4.342;2022-09-17T14:43:48;5.97;;;1.33;;
34832;SDS011;55941;50.800;4.342;2022-09-17T14:46:08;8.13;;;1.52;;
34832;SDS011;55941;50.800;4.342;2022-09-17T14:48:39;7.38;;;1.80;;
34832;SDS011;55941;50.800;4.342;2022-09-17T14:53:43;9.57;;;1.25;;
34832;SDS011;55941;50.800;4.342;2022-09-17T14:56:12;7.40;;;1.70;;
34832;SDS011;55941;50.800;4.342;2022-09-17T14:58:46;5.43;;;1.42;;
34832;SDS011;55941;50.800;4.342;2022-09-17T15:01:25;8.43;;;1.52;;
34832;SDS011;55941;50.800;4.342;2022-09-17T15:07:27;7.32;;;1.60;;
34832;SDS011;55941;50.800;4.342;2022-09-17T15:09:46;13.40;;;1.73;;
34832;SDS011;55941;50.800;4.342;2022-09-17T15:12:14;14.85;;;2.17;;
34832;SDS011;55941;50.800;4.342;2022-09-17T15:14:43;11.15;;;2.00;;
34832;SDS011;55941;50.800;4.342;2022-09-17T15:17:12;8.02;;;1.67;;
34832;SDS011;55941;50.800;4.342;2022-09-17T15:19:43;8.82;;;2.30;;
34832;SDS011;55941;50.800;4.342;2022-09-17T15:22:22;10.45;;;1.88;;
34832;SDS011;55941;50.800;4.342;2022-09-17T15:24:56;8.43;;;1.83;;
34832;SDS011;55941;50.800;4.342;2022-09-17T15:27:28;7.53;;;1.58;;
34832;SDS011;55941;50.800;4.342;2022-09-17T15:30:08;13.82;;;2.15;;
34832;SDS011;55941;50.800;4.342;2022-09-17T15:32:42;13.85;;;1.75;;
34832;SDS011;55941;50.800;4.342;2022-09-17T15:35:24;4.28;;;1.13;;
34832;SDS011;55941;50.800;4.342;2022-09-17T15:38:00;10.75;;;2.00;;
34832;SDS011;55941;50.800;4.342;2022-09-17T15:40:38;10.32;;;1.55;;
34832;SDS011;55941;50.800;4.342;2022-09-17T15:45:53;10.27;;;1.35;;
34832;SDS011;55941;50.800;4.342;2022-09-17T15:50:58;6.10;;;1.45;;
34832;SDS011;55941;50.800;4.342;2022-09-17T15:53:26;10.20;;;1.58;;
34832;SDS011;55941;50.800;4.342;2022-09-17T15:58:30;6.88;;;1.10;;
34832;SDS011;55941;50.800;4.342;2022-09-17T16:08:46;6.50;;;1.00;;
34832;SDS011;55941;50.800;4.342;2022-09-17T16:11:20;9.40;;;1.40;;
34832;SDS011;55941;50.800;4.342;2022-09-17T16:13:50;5.47;;;1.47;;
34832;SDS011;55941;50.800;4.342;2022-09-17T16:16:22;5.18;;;0.82;;
34832;SDS011;55941;50.800;4.342;2022-09-17T16:18:59;3.45;;;0.77;;
34832;SDS011;55941;50.800;4.342;2022-09-17T16:21:24;6.25;;;1.13;;
34832;SDS011;55941;50.800;4.342;2022-09-17T16:23:50;7.43;;;1.20;;
34832;SDS011;55941;50.800;4.342;2022-09-17T16:26:22;7.28;;;1.20;;
34832;SDS011;55941;50.800;4.342;2022-09-17T16:28:52;5.38;;;1.30;;
34832;SDS011;55941;50.800;4.342;2022-09-17T16:31:22;9.52;;;1.60;;
34832;SDS011;55941;50.800;4.342;2022-09-17T16:33:49;8.20;;;1.20;;
34832;SDS011;55941;50.800;4.342;2022-09-17T16:36:15;6.32;;;1.40;;
34832;SDS011;55941;50.800;4.342;2022-09-17T16:38:41;6.68;;;1.33;;
34832;SDS011;55941;50.800;4.342;2022-09-17T16:41:08;6.82;;;1.65;;
34832;SDS011;55941;50.800;4.342;2022-09-17T16:43:34;4.78;;;1.50;;
34832;SDS011;55941;50.800;4.342;2022-09-17T16:46:02;5.07;;;1.27;;
34832;SDS011;55941;50.800;4.342;2022-09-17T16:48:29;7.75;;;1.20;;
34832;SDS011;55941;50.800;4.342;2022-09-17T16:50:57;5.40;;;1.23;;
34832;SDS011;55941;50.800;4.342;2022-09-17T16:53:22;5.35;;;1.20;;
34832;SDS011;55941;50.800;4.342;2022-09-17T16:55:48;7.15;;;1.55;;
34832;SDS011;55941;50.800;4.342;2022-09-17T16:58:14;13.85;;;1.90;;
34832;SDS011;55941;50.800;4.342;2022-09-17T17:00:43;6.97;;;1.95;;
34832;SDS011;55941;50.800;4.342;2022-09-17T17:03:12;8.23;;;1.58;;
34832;SDS011;55941;50.800;4.342;2022-09-17T17:05:39;11.70;;;2.00;;
34832;SDS011;55941;50.800;4.342;2022-09-17T17:08:05;7.35;;;2.10;;
34832;SDS011;55941;50.800;4.342;2022-09-17T17:10:31;7.47;;;1.95;;
34832;SDS011;55941;50.800;4.342;2022-09-17T17:12:57;19.00;;;2.88;;
34832;SDS011;55941;50.800;4.342;2022-09-17T17:15:23;11.95;;;2.33;;
34832;SDS011;55941;50.800;4.342;2022-09-17T17:17:49;14.43;;;2.40;;
34832;SDS011;55941;50.800;4.342;2022-09-17T17:20:15;19.13;;;3.03;;
34832;SDS011;55941;50.800;4.342;2022-09-17T17:22:41;11.73;;;2.30;;
34832;SDS011;55941;50.800;4.342;2022-09-17T17:25:08;12.95;;;1.85;;
34832;SDS011;55941;50.800;4.342;2022-09-17T17:27:35;10.80;;;2.13;;
34832;SDS011;55941;50.800;4.342;2022-09-17T17:30:02;14.45;;;2.45;;
34832;SDS011;55941;50.800;4.342;2022-09-17T17:32:30;12.60;;;2.28;;
34832;SDS011;55941;50.800;4.342;2022-09-17T17:34:57;9.48;;;2.03;;
34832;SDS011;55941;50.800;4.342;2022-09-17T17:37:22;11.43;;;2.00;;
34832;SDS011;55941;50.800;4.342;2022-09-17T17:39:48;9.18;;;2.08;;
34832;SDS011;55941;50.800;4.342;2022-09-17T17:42:15;8.18;;;2.58;;
34832;SDS011;55941;50.800;4.342;2022-09-17T17:44:42;12.70;;;2.75;;
34832;SDS011;55941;50.800;4.342;2022-09-17T17:47:08;8.63;;;1.83;;
34832;SDS011;55941;50.800;4.342;2022-09-17T17:49:34;11.15;;;2.50;;
34832;SDS011;55941;50.800;4.342;2022-09-17T17:51:59;8.43;;;2.10;;
34832;SDS011;55941;50.800;4.342;2022-09-17T17:54:25;11.75;;;2.30;;
34832;SDS011;55941;50.800;4.342;2022-09-17T17:56:53;7.03;;;2.08;;
34832;SDS011;55941;50.800;4.342;2022-09-17T17:59:19;11.60;;;2.33;;
34832;SDS011;55941;50.800;4.342;2022-09-17T18:01:45;15.50;;;2.25;;
34832;SDS011;55941;50.800;4.342;2022-09-17T18:04:11;15.93;;;2.20;;
34832;SDS011;55941;50.800;4.342;2022-09-17T18:06:36;16.00;;;2.15;;
34832;SDS011;55941;50.800;4.342;2022-09-17T18:09:03;14.02;;;2.90;;
34832;SDS011;55941;50.800;4.342;2022-09-17T18:11:30;13.70;;;2.90;;
34832;SDS011;55941;50.800;4.342;2022-09-17T18:13:57;10.95;;;2.42;;
34832;SDS011;55941;50.800;4.342;2022-09-17T18:16:26;13.30;;;2.90;;
34832;SDS011;55941;50.800;4.342;2022-09-17T18:18:53;14.43;;;2.75;;
34832;SDS011;55941;50.800;4.342;2022-09-17T18:21:21;15.68;;;3.03;;
34832;SDS011;55941;50.800;4.342;2022-09-17T18:23:48;14.13;;;2.90;;
34832;SDS011;55941;50.800;4.342;2022-09-17T18:26:24;13.23;;;3.10;;
34832;SDS011;55941;50.800;4.342;2022-09-17T18:28:51;18.48;;;3.20;;
34832;SDS011;55941;50.800;4.342;2022-09-17T18:31:27;11.85;;;2.38;;
34832;SDS011;55941;50.800;4.342;2022-09-17T18:33:59;14.63;;;2.38;;
34832;SDS011;55941;50.800;4.342;2022-09-17T18:36:30;12.82;;;2.35;;
34832;SDS011;55941;50.800;4.342;2022-09-17T18:38:58;10.35;;;2.30;;
34832;SDS011;55941;50.800;4.342;2022-09-17T18:41:26;18.20;;;3.15;;
34832;SDS011;55941;50.800;4.342;2022-09-17T18:43:54;18.73;;;2.35;;
34832;SDS011;55941;50.800;4.342;2022-09-17T18:46:21;11.85;;;2.67;;
34832;SDS011;55941;50.800;4.342;2022-09-17T18:48:54;14.10;;;2.85;;